createdAt,value
2022-12-03T00:00:48.057Z,98.45
2022-12-03T00:03:16.140Z,98.38
2022-12-03T00:05:48.814Z,98.44
2022-12-03T00:08:17.171Z,98.31
2022-12-03T00:10:44.783Z,98.26
2022-12-03T00:13:12.336Z,98.26
2022-12-03T00:15:40.162Z,98.24
2022-12-03T00:18:07.936Z,98.20
2022-12-03T00:20:35.595Z,98.20
2022-12-03T00:23:03.402Z,98.27
2022-12-03T00:25:31.092Z,98.34
2022-12-03T00:27:58.926Z,97.96
2022-12-03T00:30:26.786Z,98.27
2022-12-03T00:32:54.276Z,98.26
2022-12-03T00:35:21.797Z,98.86
2022-12-03T00:37:49.854Z,98.37
2022-12-03T00:40:17.424Z,98.30
2022-12-03T00:42:44.929Z,98.33
2022-12-03T00:45:12.906Z,98.12
2022-12-03T00:47:40.566Z,97.61
2022-12-03T00:50:08.555Z,98.23
2022-12-03T00:52:36.304Z,98.38
2022-12-03T00:55:04.372Z,98.31
2022-12-03T00:57:31.905Z,98.39
2022-12-03T00:59:59.713Z,98.43
2022-12-03T01:02:27.286Z,98.22
2022-12-03T01:04:55.199Z,97.37
2022-12-03T01:07:23.297Z,96.99
2022-12-03T01:09:51.168Z,97.18
2022-12-03T01:12:18.849Z,97.38
2022-12-03T01:14:47.119Z,97.62
2022-12-03T01:17:14.646Z,97.66
2022-12-03T01:19:48.235Z,97.72
2022-12-03T01:22:16.659Z,98.00
2022-12-03T01:24:44.256Z,97.88
2022-12-03T01:27:11.828Z,97.95
2022-12-03T01:29:39.717Z,97.96
2022-12-03T01:32:19.868Z,97.95
2022-12-03T01:34:53.101Z,97.89
2022-12-03T01:37:23.003Z,97.71
2022-12-03T01:39:51.117Z,97.81
2022-12-03T01:42:25.225Z,97.62
2022-12-03T01:44:55.161Z,97.95
2022-12-03T01:47:27.807Z,98.10
2022-12-03T01:50:02.033Z,97.89
2022-12-03T01:52:32.657Z,97.85
2022-12-03T01:55:03.339Z,97.91
2022-12-03T01:57:37.089Z,98.92
2022-12-03T02:00:05.787Z,100.00
2022-12-03T02:02:33.481Z,100.00
2022-12-03T02:05:01.756Z,100.00
2022-12-03T02:07:35.466Z,100.00
2022-12-03T02:10:04.693Z,100.00
2022-12-03T02:12:38.640Z,100.00
2022-12-03T02:15:07.207Z,100.00
2022-12-03T02:17:35.081Z,100.00
2022-12-03T02:20:05.262Z,100.00
2022-12-03T02:22:44.017Z,100.00
2022-12-03T02:25:29.427Z,100.00
2022-12-03T02:27:57.000Z,100.00
2022-12-03T02:30:26.755Z,100.00
2022-12-03T02:32:54.744Z,100.00
2022-12-03T02:35:27.194Z,100.00
2022-12-03T02:38:09.660Z,100.00
2022-12-03T02:40:37.336Z,100.00
2022-12-03T02:43:05.468Z,100.00
2022-12-03T02:45:41.781Z,100.00
2022-12-03T02:48:19.219Z,100.00
2022-12-03T02:50:55.563Z,100.00
2022-12-03T02:53:27.482Z,100.00
2022-12-03T02:55:58.311Z,100.00
2022-12-03T02:58:27.584Z,100.00
2022-12-03T03:00:55.895Z,100.00
2022-12-03T03:03:25.043Z,100.00
2022-12-03T03:05:53.916Z,100.00
2022-12-03T03:08:21.772Z,100.00
2022-12-03T03:10:50.003Z,100.00
2022-12-03T03:13:20.839Z,100.00
2022-12-03T03:15:48.585Z,100.00
2022-12-03T03:18:16.785Z,100.00
2022-12-03T03:20:45.375Z,100.00
2022-12-03T03:23:12.770Z,100.00
2022-12-03T03:25:43.175Z,100.00
2022-12-03T03:28:12.094Z,100.00
2022-12-03T03:30:41.359Z,100.00
2022-12-03T03:33:09.254Z,100.00
2022-12-03T03:35:37.338Z,100.00
2022-12-03T03:38:05.860Z,100.00
2022-12-03T03:44:24.767Z,100.00
2022-12-03T03:46:52.644Z,100.00
2022-12-03T03:49:20.511Z,100.00
2022-12-03T03:51:48.177Z,100.00
2022-12-03T03:54:16.115Z,100.00
2022-12-03T03:56:43.691Z,100.00
2022-12-03T03:59:13.278Z,100.00
2022-12-03T04:01:41.724Z,100.00
2022-12-03T04:04:17.409Z,100.00
2022-12-03T04:06:45.033Z,100.00
2022-12-03T04:09:12.873Z,100.00
2022-12-03T04:11:58.596Z,100.00
2022-12-03T04:14:26.391Z,100.00
2022-12-03T04:16:54.083Z,100.00
2022-12-03T04:19:21.715Z,100.00
2022-12-03T04:22:07.961Z,100.00
2022-12-03T04:24:35.553Z,100.00
2022-12-03T04:27:22.209Z,100.00
2022-12-03T04:29:49.815Z,100.00
2022-12-03T04:32:35.892Z,100.00
2022-12-03T04:35:22.418Z,100.00
2022-12-03T04:37:50.339Z,100.00
2022-12-03T04:40:38.695Z,100.00
2022-12-03T04:43:06.587Z,100.00
2022-12-03T04:45:34.169Z,100.00
2022-12-03T04:48:01.827Z,100.00
2022-12-03T04:50:29.814Z,100.00
2022-12-03T04:52:57.438Z,100.00
2022-12-03T04:55:24.956Z,100.00
2022-12-03T04:57:53.254Z,100.00
2022-12-03T05:00:21.019Z,100.00
2022-12-03T05:02:48.688Z,100.00
2022-12-03T05:05:16.743Z,100.00
2022-12-03T05:07:44.307Z,100.00
2022-12-03T05:10:12.605Z,100.00
2022-12-03T05:12:40.443Z,100.00
2022-12-03T05:15:08.233Z,100.00
2022-12-03T05:17:35.781Z,100.00
2022-12-03T05:20:22.598Z,100.00
2022-12-03T05:22:50.135Z,100.00
2022-12-03T05:25:17.973Z,100.00
2022-12-03T05:27:45.547Z,100.00
2022-12-03T05:30:13.418Z,100.00
2022-12-03T05:32:41.264Z,100.00
2022-12-03T05:35:09.888Z,100.00
2022-12-03T05:37:37.685Z,100.00
2022-12-03T05:40:06.190Z,100.00
2022-12-03T05:42:52.271Z,100.00
2022-12-03T05:45:27.851Z,100.00
2022-12-03T05:47:56.181Z,100.00
2022-12-03T05:50:25.906Z,100.00
2022-12-03T05:52:55.980Z,100.00
2022-12-03T05:55:23.811Z,100.00
2022-12-03T05:57:51.309Z,100.00
2022-12-03T06:00:21.730Z,100.00
2022-12-03T06:02:49.874Z,100.00
2022-12-03T06:05:19.593Z,100.00
2022-12-03T06:07:48.803Z,100.00
2022-12-03T06:10:22.092Z,100.00
2022-12-03T06:12:49.780Z,100.00
2022-12-03T06:15:18.347Z,100.00
2022-12-03T06:17:45.991Z,100.00
2022-12-03T06:20:18.677Z,100.00
2022-12-03T06:22:47.196Z,100.00
2022-12-03T06:25:15.190Z,100.00
2022-12-03T06:27:43.000Z,100.00
2022-12-03T06:30:11.889Z,100.00
2022-12-03T06:32:39.480Z,100.00
2022-12-03T06:35:07.323Z,100.00
2022-12-03T06:37:35.079Z,100.00
2022-12-03T06:40:02.637Z,100.00
2022-12-03T06:42:30.281Z,100.00
2022-12-03T06:44:58.106Z,100.00
2022-12-03T06:47:25.658Z,100.00
2022-12-03T06:49:53.348Z,100.00
2022-12-03T06:52:21.133Z,100.00
2022-12-03T06:54:48.665Z,100.00
2022-12-03T06:57:16.388Z,100.00
2022-12-03T06:59:44.203Z,100.00
2022-12-03T07:02:12.861Z,100.00
2022-12-03T07:04:45.940Z,100.00
2022-12-03T07:07:14.711Z,100.00
2022-12-03T07:09:42.445Z,99.92
2022-12-03T07:12:10.402Z,99.85
2022-12-03T07:14:38.435Z,100.00
2022-12-03T07:17:06.062Z,99.81
2022-12-03T07:19:33.745Z,99.21
2022-12-03T07:22:01.701Z,99.43
2022-12-03T07:24:29.246Z,99.55
2022-12-03T07:26:56.780Z,100.00
2022-12-03T07:29:24.522Z,99.82
2022-12-03T07:31:52.285Z,99.46
2022-12-03T07:34:19.998Z,99.55
2022-12-03T07:36:47.862Z,99.18
2022-12-03T07:39:15.642Z,98.89
2022-12-03T07:41:43.225Z,98.61
2022-12-03T07:44:14.690Z,98.38
2022-12-03T07:46:42.732Z,98.27
2022-12-03T07:49:12.202Z,97.98
2022-12-03T07:51:40.426Z,97.65
2022-12-03T07:54:08.002Z,97.40
2022-12-03T07:56:35.629Z,97.27
2022-12-03T07:59:03.719Z,97.63
2022-12-03T08:01:31.413Z,97.69
2022-12-03T08:03:59.818Z,97.67
2022-12-03T08:06:27.301Z,97.63
2022-12-03T08:08:56.996Z,97.66
2022-12-03T08:11:24.814Z,97.61
2022-12-03T08:13:52.462Z,97.74
2022-12-03T08:16:22.458Z,97.74
2022-12-03T08:18:51.233Z,97.99
2022-12-03T08:21:20.249Z,98.37
2022-12-03T08:23:48.201Z,98.37
2022-12-03T08:26:19.630Z,98.24
2022-12-03T08:28:47.280Z,98.18
2022-12-03T08:31:19.898Z,98.21
2022-12-03T08:33:49.659Z,98.31
2022-12-03T08:36:25.658Z,98.55
2022-12-03T08:38:59.566Z,99.18
2022-12-03T08:41:45.616Z,98.78
2022-12-03T08:44:16.470Z,98.74
2022-12-03T08:46:45.000Z,98.82
2022-12-03T08:49:14.329Z,99.06
2022-12-03T08:51:41.830Z,98.94
2022-12-03T08:54:13.596Z,98.96
2022-12-03T08:56:41.599Z,99.23
2022-12-03T08:59:27.022Z,99.37
2022-12-03T09:01:56.082Z,99.10
2022-12-03T09:04:39.365Z,98.96
2022-12-03T09:07:07.269Z,98.90
2022-12-03T09:09:35.083Z,98.52
2022-12-03T09:12:04.443Z,98.27
2022-12-03T09:14:32.324Z,98.11
2022-12-03T09:16:59.975Z,98.16
2022-12-03T09:19:30.938Z,98.20
2022-12-03T09:21:58.910Z,98.08
2022-12-03T09:24:27.196Z,98.01
2022-12-03T09:26:54.768Z,97.91
2022-12-03T09:29:23.025Z,98.02
2022-12-03T09:31:50.644Z,98.44
2022-12-03T09:34:18.308Z,98.00
2022-12-03T09:36:46.057Z,97.99
2022-12-03T09:39:13.789Z,97.73
2022-12-03T09:41:43.386Z,97.71
2022-12-03T09:44:17.485Z,97.39
2022-12-03T09:46:46.279Z,97.47
2022-12-03T09:49:16.432Z,97.29
2022-12-03T09:51:44.540Z,97.40
2022-12-03T09:54:25.039Z,97.16
2022-12-03T09:56:54.249Z,96.91
2022-12-03T09:59:23.306Z,96.73
2022-12-03T10:01:52.546Z,96.54
2022-12-03T10:04:20.528Z,96.17
2022-12-03T10:06:48.225Z,96.02
2022-12-03T10:13:02.309Z,95.70
2022-12-03T10:15:30.275Z,95.53
2022-12-03T10:17:58.020Z,95.50
2022-12-03T10:20:26.182Z,95.58
2022-12-03T10:22:54.002Z,95.60
2022-12-03T10:25:22.804Z,95.40
2022-12-03T10:27:59.263Z,94.90
2022-12-03T10:30:28.836Z,94.29
2022-12-03T10:32:58.114Z,93.85
2022-12-03T10:35:27.238Z,93.43
2022-12-03T10:38:08.300Z,93.17
2022-12-03T10:40:39.446Z,92.88
2022-12-03T10:43:13.461Z,92.79
2022-12-03T10:45:42.009Z,92.62
2022-12-03T10:48:21.516Z,92.70
2022-12-03T10:50:57.511Z,91.84
2022-12-03T10:53:30.699Z,91.44
2022-12-03T10:55:59.952Z,91.02
2022-12-03T10:58:29.861Z,91.34
2022-12-03T11:01:01.037Z,91.17
2022-12-03T11:03:34.109Z,91.11
2022-12-03T11:06:03.208Z,90.57
2022-12-03T11:08:34.551Z,90.34
2022-12-03T11:11:29.632Z,90.45
2022-12-03T11:14:02.289Z,89.93
2022-12-03T11:16:42.111Z,88.97
2022-12-03T11:19:12.871Z,88.79
2022-12-03T11:22:05.911Z,88.73
2022-12-03T11:24:35.674Z,88.64
2022-12-03T11:27:03.290Z,88.29
2022-12-03T11:29:56.191Z,88.56
2022-12-03T11:32:39.024Z,87.92
2022-12-03T11:35:15.348Z,87.86
2022-12-03T11:37:43.112Z,87.43
2022-12-03T11:40:16.469Z,87.42
2022-12-03T11:42:46.405Z,87.23
2022-12-03T11:45:17.958Z,87.33
2022-12-03T11:47:49.070Z,87.06
2022-12-03T11:50:24.361Z,86.97
2022-12-03T11:53:23.536Z,87.24
2022-12-03T11:56:04.180Z,87.11
2022-12-03T11:58:33.284Z,86.28
2022-12-03T12:01:02.746Z,86.37
2022-12-03T12:03:36.471Z,86.60
2022-12-03T12:06:07.907Z,86.25
2022-12-03T12:08:38.362Z,85.82
2022-12-03T12:11:31.056Z,85.74
2022-12-03T12:14:06.847Z,85.17
2022-12-03T12:16:41.330Z,85.15
2022-12-03T12:19:28.863Z,85.43
2022-12-03T12:21:56.981Z,85.30
2022-12-03T12:24:31.132Z,85.18
2022-12-03T12:27:15.580Z,85.08
2022-12-03T12:29:48.014Z,85.44
2022-12-03T12:32:17.948Z,85.50
2022-12-03T12:34:48.567Z,85.10
2022-12-03T12:37:33.005Z,85.33
2022-12-03T12:40:04.376Z,85.44
2022-12-03T12:42:37.062Z,84.57
2022-12-03T12:45:07.810Z,84.98
2022-12-03T12:47:36.436Z,85.28
2022-12-03T12:50:11.235Z,85.64
2022-12-03T12:52:54.580Z,85.82
2022-12-03T12:55:23.385Z,85.28
2022-12-03T12:57:51.575Z,85.14
2022-12-03T13:00:22.220Z,85.09
2022-12-03T13:02:58.884Z,85.44
2022-12-03T13:05:46.672Z,85.20
2022-12-03T13:08:29.184Z,85.26
2022-12-03T13:10:59.160Z,85.42
2022-12-03T13:13:43.594Z,85.35
2022-12-03T13:16:20.645Z,85.19
2022-12-03T13:18:56.955Z,84.86
2022-12-03T13:21:41.470Z,85.13
2022-12-03T13:24:42.742Z,85.37
2022-12-03T13:27:30.922Z,85.61
2022-12-03T13:30:02.337Z,85.83
2022-12-03T13:32:38.908Z,85.62
2022-12-03T13:35:07.845Z,86.01
2022-12-03T13:37:37.131Z,86.26
2022-12-03T13:40:35.098Z,86.43
2022-12-03T13:43:32.369Z,86.52
2022-12-03T13:46:00.276Z,86.69
2022-12-03T13:48:32.317Z,86.80
2022-12-03T13:51:02.424Z,86.84
2022-12-03T13:53:36.457Z,87.00
2022-12-03T13:56:30.717Z,87.19
2022-12-03T13:59:00.440Z,87.45
2022-12-03T14:01:28.749Z,87.69
2022-12-03T14:03:56.981Z,87.80
2022-12-03T14:06:24.461Z,87.94
2022-12-03T14:08:52.009Z,88.10
2022-12-03T14:11:38.407Z,88.33
2022-12-03T14:14:06.144Z,88.44
2022-12-03T14:16:34.020Z,88.58
2022-12-03T14:19:01.727Z,88.75
2022-12-03T14:21:29.529Z,89.01
2022-12-03T14:23:57.324Z,89.09
2022-12-03T14:26:24.895Z,89.29
2022-12-03T14:28:52.411Z,89.45
2022-12-03T14:31:20.465Z,89.67
2022-12-03T14:33:48.065Z,89.83
2022-12-03T14:36:15.550Z,90.07
2022-12-03T14:38:43.341Z,90.18
2022-12-03T14:41:30.851Z,90.38
2022-12-03T14:43:58.680Z,90.51
2022-12-03T14:46:26.333Z,90.65
2022-12-03T14:48:54.603Z,90.73
2022-12-03T14:51:22.391Z,90.83
2022-12-03T14:53:50.056Z,90.94
2022-12-03T14:56:19.523Z,91.09
2022-12-03T14:58:47.667Z,91.20
2022-12-03T15:01:15.336Z,91.28
2022-12-03T15:03:42.846Z,91.35
2022-12-03T15:06:10.674Z,91.47
2022-12-03T15:08:38.276Z,91.50
2022-12-03T15:11:06.336Z,91.59
2022-12-03T15:13:34.150Z,91.69
2022-12-03T15:16:01.709Z,91.72
2022-12-03T15:18:31.096Z,91.93
2022-12-03T15:20:58.886Z,92.03
2022-12-03T15:23:26.502Z,92.15
2022-12-03T15:25:54.027Z,92.37
2022-12-03T15:28:23.145Z,92.56
2022-12-03T15:30:50.985Z,92.71
2022-12-03T15:33:18.629Z,92.85
2022-12-03T15:35:46.546Z,92.95
2022-12-03T15:38:16.061Z,93.38
2022-12-03T15:40:43.943Z,93.67
2022-12-03T15:43:12.356Z,93.89
2022-12-03T15:45:40.362Z,93.68
2022-12-03T15:48:08.005Z,93.65
2022-12-03T15:50:40.092Z,93.82
2022-12-03T15:53:07.949Z,93.84
2022-12-03T15:55:35.895Z,93.89
2022-12-03T15:58:03.673Z,93.95
2022-12-03T16:00:31.356Z,93.96
2022-12-03T16:02:59.611Z,93.98
2022-12-03T16:05:27.761Z,93.92
2022-12-03T16:07:55.602Z,93.93
2022-12-03T16:10:24.279Z,93.90
2022-12-03T16:12:51.819Z,93.93
2022-12-03T16:15:23.684Z,93.99
2022-12-03T16:17:55.170Z,94.07
2022-12-03T16:20:23.938Z,94.12
2022-12-03T16:22:52.073Z,94.11
2022-12-03T16:25:19.897Z,94.30
2022-12-03T16:27:47.617Z,94.37
2022-12-03T16:30:15.470Z,94.43
2022-12-03T16:32:43.326Z,94.46
2022-12-03T16:35:10.873Z,94.43
2022-12-03T16:37:38.540Z,94.42
2022-12-03T16:40:07.367Z,94.43
2022-12-03T16:42:37.026Z,94.43
2022-12-03T16:45:08.933Z,94.43
2022-12-03T16:47:37.166Z,94.45
2022-12-03T16:50:07.796Z,94.51
2022-12-03T16:52:35.831Z,94.61
2022-12-03T16:55:03.972Z,94.77
2022-12-03T16:57:33.897Z,94.84
2022-12-03T17:00:01.735Z,94.89
2022-12-03T17:02:29.799Z,94.96
2022-12-03T17:04:57.402Z,95.09
2022-12-03T17:07:24.978Z,95.13
2022-12-03T17:09:53.374Z,95.22
2022-12-03T17:12:21.076Z,95.36
2022-12-03T17:14:48.718Z,95.47
2022-12-03T17:17:18.623Z,95.46
2022-12-03T17:19:46.377Z,95.56
2022-12-03T17:22:14.283Z,95.65
2022-12-03T17:24:44.042Z,95.60
2022-12-03T17:27:12.912Z,95.68
2022-12-03T17:29:40.518Z,95.70
2022-12-03T17:32:08.481Z,95.66
2022-12-03T17:34:36.145Z,95.80
2022-12-03T17:37:03.794Z,95.83
2022-12-03T17:39:31.667Z,95.86
2022-12-03T17:41:59.396Z,96.77
2022-12-03T17:44:27.031Z,96.33
2022-12-03T17:46:55.085Z,96.32
2022-12-03T17:49:25.711Z,96.77
2022-12-03T17:51:57.758Z,96.55
2022-12-03T17:54:38.012Z,96.55
2022-12-03T17:57:13.085Z,96.42
2022-12-03T17:59:42.029Z,96.21
2022-12-03T18:02:09.678Z,96.32
2022-12-03T18:04:37.637Z,96.44
2022-12-03T18:07:05.146Z,96.39
2022-12-03T18:09:32.710Z,96.39
2022-12-03T18:12:00.585Z,96.04
2022-12-03T18:14:28.368Z,96.26
2022-12-03T18:16:56.259Z,95.98
2022-12-03T18:19:26.519Z,96.09
2022-12-03T18:21:54.980Z,96.22
2022-12-03T18:24:22.802Z,96.30
2022-12-03T18:26:50.775Z,96.42
2022-12-03T18:29:18.559Z,96.46
2022-12-03T18:31:46.494Z,96.50
2022-12-03T18:34:14.895Z,96.57
2022-12-03T18:36:42.785Z,96.57
2022-12-03T18:39:18.842Z,96.58
2022-12-03T18:41:46.622Z,96.58
2022-12-03T18:44:14.529Z,96.59
2022-12-03T18:46:53.356Z,96.70
2022-12-03T18:49:21.984Z,96.75
2022-12-03T18:51:53.277Z,96.90
2022-12-03T18:54:25.741Z,96.96
2022-12-03T18:56:53.304Z,96.95
2022-12-03T18:59:21.374Z,96.93
2022-12-03T19:01:50.211Z,96.87
2022-12-03T19:04:17.866Z,97.01
2022-12-03T19:06:45.521Z,97.33
2022-12-03T19:09:13.520Z,97.20
2022-12-03T19:11:41.418Z,97.25
2022-12-03T19:14:11.168Z,97.71
2022-12-03T19:16:40.429Z,97.57
2022-12-03T19:19:09.497Z,97.50
2022-12-03T19:21:37.649Z,98.06
2022-12-03T19:26:55.561Z,97.93
2022-12-03T19:29:24.517Z,98.25
2022-12-03T19:31:52.586Z,97.80
2022-12-03T19:34:20.729Z,98.16
2022-12-03T19:36:48.654Z,98.64
2022-12-03T19:39:16.601Z,98.11
2022-12-03T19:41:44.775Z,98.07
2022-12-03T19:44:14.635Z,98.74
2022-12-03T19:46:43.407Z,98.57
2022-12-03T19:49:11.430Z,98.71
2022-12-03T19:51:39.364Z,98.46
2022-12-03T19:54:10.122Z,98.40
2022-12-03T19:56:37.882Z,98.34
2022-12-03T19:59:06.360Z,98.26
2022-12-03T20:01:35.957Z,98.28
2022-12-03T20:04:04.356Z,98.25
2022-12-03T20:06:34.333Z,98.19
2022-12-03T20:09:06.371Z,98.21
2022-12-03T20:11:35.141Z,98.14
2022-12-03T20:14:07.083Z,98.04
2022-12-03T20:16:35.796Z,97.97
2022-12-03T20:19:06.371Z,97.91
2022-12-03T20:21:36.455Z,97.80
2022-12-03T20:24:05.560Z,97.73
2022-12-03T20:26:34.540Z,97.64
2022-12-03T20:29:02.506Z,97.51
2022-12-03T20:31:31.655Z,97.42
2022-12-03T20:34:01.327Z,97.35
2022-12-03T20:36:30.241Z,97.31
2022-12-03T20:39:01.119Z,97.27
2022-12-03T20:41:29.146Z,97.32
2022-12-03T20:43:56.988Z,97.26
2022-12-03T20:46:30.448Z,97.18
2022-12-03T20:48:58.983Z,97.09
2022-12-03T20:51:29.749Z,97.06
2022-12-03T20:54:00.039Z,96.99
2022-12-03T20:56:32.547Z,96.93
2022-12-03T20:59:01.907Z,96.89
2022-12-03T21:01:30.136Z,96.91
2022-12-03T21:03:57.972Z,96.98
2022-12-03T21:06:27.037Z,96.93
2022-12-03T21:08:56.158Z,96.88
2022-12-03T21:11:26.355Z,96.87
2022-12-03T21:13:55.520Z,96.78
2022-12-03T21:16:52.037Z,96.73
2022-12-03T21:19:13.681Z,96.57
2022-12-03T21:21:41.818Z,96.51
2022-12-03T21:24:11.431Z,96.23
2022-12-03T21:26:39.681Z,95.96
2022-12-03T21:29:07.783Z,95.71
2022-12-03T21:31:37.320Z,95.70
2022-12-03T21:34:05.379Z,95.59
2022-12-03T21:36:33.203Z,95.59
2022-12-03T21:39:00.774Z,95.57
2022-12-03T21:41:28.645Z,95.61
2022-12-03T21:43:56.928Z,95.65
2022-12-03T21:47:09.264Z,95.58
2022-12-03T21:49:12.414Z,95.62
2022-12-03T21:51:40.187Z,95.61
2022-12-03T21:54:07.799Z,95.55
2022-12-03T21:56:35.916Z,95.61
2022-12-03T21:59:04.406Z,95.72
2022-12-03T22:01:32.037Z,95.70
2022-12-03T22:04:05.098Z,95.63
2022-12-03T22:06:32.627Z,95.87
2022-12-03T22:09:00.571Z,95.73
2022-12-03T22:11:28.130Z,95.70
2022-12-03T22:13:57.145Z,95.62
2022-12-03T22:16:25.085Z,95.48
2022-12-03T22:18:54.209Z,95.39
2022-12-03T22:21:21.901Z,95.28
2022-12-03T22:23:49.781Z,95.18
2022-12-03T22:26:19.055Z,94.85
2022-12-03T22:28:48.493Z,94.67
2022-12-03T22:31:17.818Z,94.58
2022-12-03T22:33:48.498Z,94.50
2022-12-03T22:36:21.367Z,94.33
2022-12-03T22:38:50.364Z,94.34
2022-12-03T22:41:18.851Z,94.27
2022-12-03T22:43:47.390Z,94.07
2022-12-03T22:46:15.614Z,94.05
2022-12-03T22:48:45.525Z,94.06
2022-12-03T22:51:15.996Z,94.10
2022-12-03T22:53:43.886Z,94.13
2022-12-03T22:56:12.246Z,94.23
2022-12-03T22:58:40.585Z,94.14
2022-12-03T23:01:08.707Z,94.27
2022-12-03T23:03:36.908Z,94.38
2022-12-03T23:06:12.356Z,94.47
2022-12-03T23:08:40.846Z,94.29
2022-12-03T23:11:08.963Z,94.40
2022-12-03T23:13:36.919Z,94.41
2022-12-03T23:16:05.238Z,94.20
2022-12-03T23:18:33.205Z,94.26
2022-12-03T23:21:01.359Z,94.31
2022-12-03T23:23:29.174Z,94.22
2022-12-03T23:26:07.998Z,94.02
2022-12-03T23:28:38.072Z,94.24
2022-12-03T23:31:06.693Z,94.25
2022-12-03T23:33:38.430Z,94.07
2022-12-03T23:36:07.250Z,93.92
2022-12-03T23:38:34.769Z,93.98
2022-12-03T23:41:11.397Z,94.03
2022-12-03T23:43:39.560Z,94.06
2022-12-03T23:46:13.149Z,94.10
2022-12-03T23:48:42.412Z,94.09
2022-12-03T23:51:12.607Z,94.04
2022-12-03T23:53:40.425Z,94.07
2022-12-03T23:56:09.967Z,94.14
2022-12-03T23:58:38.709Z,94.12
